createdAt,value
2022-08-09T00:02:43.053Z,4.28
2022-08-09T00:06:51.890Z,4.15
2022-08-09T00:10:54.488Z,3.97
2022-08-09T00:15:06.313Z,4.65
2022-08-09T00:19:10.508Z,6.13
2022-08-09T00:23:55.256Z,3.00
2022-08-09T00:27:36.124Z,4.60
2022-08-09T00:31:59.630Z,2.38
2022-08-09T00:36:00.910Z,3.42
2022-08-09T00:40:12.714Z,10.02
2022-08-09T00:44:25.856Z,5.43
2022-08-09T00:48:28.671Z,4.35
2022-08-09T00:52:31.201Z,6.85
2022-08-09T00:56:35.939Z,6.90
2022-08-09T01:00:40.697Z,5.25
2022-08-09T01:05:05.297Z,5.97
2022-08-09T01:09:23.731Z,4.30
2022-08-09T01:13:58.768Z,7.13
2022-08-09T01:18:14.475Z,5.35
2022-08-09T01:22:32.443Z,5.28
2022-08-09T01:26:59.318Z,7.32
2022-08-09T01:31:06.168Z,5.63
2022-08-09T01:35:37.914Z,6.05
2022-08-09T01:39:44.429Z,5.78
2022-08-09T01:43:52.572Z,4.72
2022-08-09T01:47:56.933Z,7.45
2022-08-09T01:52:07.441Z,8.98
2022-08-09T01:56:11.420Z,6.97
2022-08-09T02:00:34.914Z,7.15
2022-08-09T02:04:40.610Z,6.78
2022-08-09T02:08:58.600Z,7.85
2022-08-09T02:13:05.217Z,6.00
2022-08-09T02:17:59.830Z,11.77
2022-08-09T02:21:39.491Z,8.30
2022-08-09T02:25:52.725Z,7.60
2022-08-09T02:29:59.093Z,8.85
2022-08-09T02:34:13.333Z,12.00
2022-08-09T02:38:31.497Z,5.78
2022-08-09T02:42:39.454Z,7.53
2022-08-09T02:50:56.143Z,6.57
2022-08-09T02:55:03.174Z,6.45
2022-08-09T02:59:26.471Z,5.85
2022-08-09T03:04:17.390Z,6.43
2022-08-09T03:08:03.775Z,7.90
2022-08-09T03:12:10.970Z,11.80
2022-08-09T03:16:19.181Z,5.40
2022-08-09T03:20:22.120Z,5.78
2022-08-09T03:24:42.827Z,7.93
2022-08-09T03:28:55.066Z,7.57
2022-08-09T03:32:58.561Z,9.35
2022-08-09T03:37:02.255Z,7.10
2022-08-09T03:41:15.666Z,8.57
2022-08-09T03:46:03.342Z,5.95
2022-08-09T03:49:57.676Z,8.40
2022-08-09T03:53:59.788Z,9.60
2022-08-09T03:58:06.576Z,9.30
2022-08-09T04:02:19.814Z,8.82
2022-08-09T04:06:29.065Z,6.07
2022-08-09T04:10:31.342Z,8.20
2022-08-09T04:14:53.246Z,8.25
2022-08-09T04:18:54.839Z,8.15
2022-08-09T04:22:56.578Z,7.13
2022-08-09T04:27:00.786Z,6.45
2022-08-09T04:31:08.214Z,8.77
2022-08-09T04:35:12.820Z,7.40
2022-08-09T04:39:14.803Z,5.35
2022-08-09T04:43:18.042Z,7.22
2022-08-09T04:47:19.687Z,7.38
2022-08-09T04:51:21.860Z,6.75
2022-08-09T04:55:24.618Z,8.40
2022-08-09T04:59:26.481Z,9.20
2022-08-09T05:03:42.606Z,11.52
2022-08-09T05:07:46.529Z,7.47
2022-08-09T05:11:48.280Z,6.13
2022-08-09T05:15:56.505Z,8.30
2022-08-09T05:19:58.729Z,8.15
2022-08-09T05:24:03.667Z,7.53
2022-08-09T05:28:05.903Z,7.30
2022-08-09T05:32:08.389Z,8.23
2022-08-09T05:36:11.976Z,7.53
2022-08-09T05:40:18.349Z,8.70
2022-08-09T05:44:22.063Z,8.77
2022-08-09T05:48:33.331Z,8.00
2022-08-09T05:52:36.145Z,6.15
2022-08-09T05:56:54.541Z,4.93
2022-08-09T06:00:58.252Z,6.30
2022-08-09T06:05:00.014Z,5.95
2022-08-09T06:09:01.770Z,9.35
2022-08-09T06:13:12.394Z,6.43
2022-08-09T06:17:20.650Z,7.35
2022-08-09T06:21:22.280Z,13.50
2022-08-09T06:25:24.561Z,9.30
2022-08-09T06:29:26.960Z,5.90
2022-08-09T06:33:39.629Z,6.22
2022-08-09T06:37:53.312Z,11.02
2022-08-09T06:42:08.972Z,8.00
2022-08-09T06:46:39.123Z,6.90
2022-08-09T06:50:35.191Z,9.82
2022-08-09T06:54:37.192Z,5.38
2022-08-09T07:00:50.918Z,7.63
2022-08-09T07:03:05.969Z,8.35
2022-08-09T07:07:12.019Z,9.10
2022-08-09T07:11:34.348Z,5.70
2022-08-09T07:16:38.679Z,8.40
2022-08-09T07:20:13.034Z,6.55
2022-08-09T07:24:14.652Z,5.78
2022-08-09T07:28:19.108Z,6.10
2022-08-09T07:32:32.919Z,7.25
2022-08-09T07:36:36.396Z,6.28
2022-08-09T07:41:08.284Z,4.90
2022-08-09T07:45:06.556Z,6.20
2022-08-09T07:49:21.961Z,2.50
2022-08-09T07:54:05.720Z,3.25
2022-08-09T07:57:48.994Z,3.97
2022-08-09T08:01:53.029Z,3.00
2022-08-09T08:05:57.848Z,1.65
2022-08-09T08:10:08.516Z,4.13
2022-08-09T08:14:12.267Z,4.22
2022-08-09T08:18:14.411Z,3.60
2022-08-09T08:22:16.317Z,3.13
2022-08-09T08:26:18.466Z,5.05
2022-08-09T08:30:28.871Z,3.40
2022-08-09T08:34:30.642Z,3.60
2022-08-09T08:38:35.180Z,1.17
2022-08-09T08:42:37.930Z,1.58
2022-08-09T08:46:59.996Z,2.97
2022-08-09T08:51:02.831Z,1.40
2022-08-09T08:55:05.901Z,3.13
2022-08-09T08:59:18.977Z,3.08
2022-08-09T09:03:25.296Z,3.13
2022-08-09T09:07:36.857Z,1.70
2022-08-09T09:11:41.332Z,1.60
2022-08-09T09:15:43.107Z,1.83
2022-08-09T09:19:52.226Z,1.00
2022-08-09T09:23:57.534Z,1.55
2022-08-09T09:28:05.906Z,0.63
2022-08-09T09:32:15.440Z,6.28
2022-08-09T09:36:20.813Z,6.13
2022-08-09T09:40:41.882Z,1.95
2022-08-09T09:44:56.954Z,2.80
2022-08-09T09:49:06.515Z,1.42
2022-08-09T09:53:14.268Z,0.95
2022-08-09T09:58:01.601Z,2.72
2022-08-09T10:01:47.333Z,1.30
2022-08-09T10:06:03.522Z,2.50
2022-08-09T10:10:07.116Z,1.77
2022-08-09T10:14:30.579Z,1.10
2022-08-09T10:18:35.379Z,2.85
2022-08-09T10:22:39.217Z,1.48
2022-08-09T10:26:41.458Z,0.85
2022-08-09T10:35:05.676Z,3.22
2022-08-09T10:39:14.170Z,1.17
2022-08-09T10:43:20.567Z,0.80
2022-08-09T10:48:25.916Z,0.75
2022-08-09T10:52:00.190Z,4.40
2022-08-09T10:56:17.650Z,0.88
2022-08-09T11:00:36.652Z,2.80
2022-08-09T11:04:38.522Z,2.60
2022-08-09T11:09:15.503Z,1.80
2022-08-09T11:13:50.763Z,2.90
2022-08-09T11:17:42.054Z,2.60
2022-08-09T11:22:05.114Z,3.15
2022-08-09T11:30:38.006Z,1.15
2022-08-09T11:34:44.074Z,1.98
2022-08-09T11:39:00.470Z,2.30
2022-08-09T11:43:02.949Z,0.93
2022-08-09T11:47:04.713Z,1.58
2022-08-09T11:52:53.989Z,1.67
2022-08-09T11:55:53.484Z,2.42
2022-08-09T12:00:12.864Z,2.35
2022-08-09T12:04:23.726Z,7.85
2022-08-09T12:08:34.253Z,0.88
2022-08-09T12:12:53.282Z,2.20
2022-08-09T12:16:56.427Z,2.97
2022-08-09T12:21:02.852Z,0.60
2022-08-09T12:25:12.596Z,1.15
2022-08-09T12:29:33.381Z,1.35
2022-08-09T12:33:58.447Z,0.75
2022-08-09T12:38:17.094Z,1.92
2022-08-09T12:42:44.082Z,0.75
2022-08-09T12:46:50.119Z,1.20
2022-08-09T12:50:52.090Z,1.38
2022-08-09T12:56:11.386Z,1.15
2022-08-09T12:59:21.055Z,2.28
2022-08-09T13:03:56.698Z,4.20
2022-08-09T13:08:21.149Z,1.15
2022-08-09T13:13:08.833Z,2.25
2022-08-09T13:17:44.456Z,2.63
2022-08-09T13:22:37.825Z,15.43
2022-08-09T13:25:59.357Z,2.67
2022-08-09T13:30:49.487Z,6.40
2022-08-09T13:34:31.142Z,2.30
2022-08-09T13:38:56.671Z,6.10
2022-08-09T13:42:55.964Z,2.45
2022-08-09T13:47:26.888Z,1.30
2022-08-09T13:51:19.676Z,4.57
2022-08-09T13:55:22.912Z,1.23
2022-08-09T13:59:25.135Z,1.58
2022-08-09T14:04:02.713Z,7.78
2022-08-09T14:07:48.698Z,2.13
2022-08-09T14:11:53.643Z,2.70
2022-08-09T14:16:09.834Z,2.70
2022-08-09T14:20:12.413Z,3.28
2022-08-09T14:24:21.933Z,3.00
2022-08-09T14:28:33.571Z,2.30
2022-08-09T14:32:35.193Z,2.10
2022-08-09T14:36:43.048Z,1.13
2022-08-09T14:41:01.113Z,2.22
2022-08-09T14:46:39.689Z,2.05
2022-08-09T14:49:34.622Z,1.37
2022-08-09T14:53:52.499Z,2.80
2022-08-09T14:57:54.308Z,2.28
2022-08-09T15:01:57.664Z,1.95
2022-08-09T15:06:01.774Z,2.28
2022-08-09T15:10:11.193Z,1.40
2022-08-09T15:14:19.092Z,3.03
2022-08-09T15:18:21.025Z,2.13
2022-08-09T15:22:26.161Z,2.90
2022-08-09T15:26:30.924Z,6.22
2022-08-09T15:30:57.430Z,3.67
2022-08-09T15:34:55.393Z,4.40
2022-08-09T15:39:00.067Z,2.65
2022-08-09T15:43:02.395Z,2.20
2022-08-09T15:47:05.283Z,4.18
2022-08-09T15:51:11.408Z,6.07
2022-08-09T15:55:29.034Z,8.52
2022-08-09T15:59:37.500Z,3.13
2022-08-09T16:03:41.775Z,2.70
2022-08-09T16:07:45.697Z,3.60
2022-08-09T16:11:57.158Z,2.97
2022-08-09T16:16:04.786Z,1.70
2022-08-09T16:20:15.011Z,2.40
2022-08-09T16:24:30.239Z,3.47
2022-08-09T16:28:35.748Z,1.80
2022-08-09T16:32:56.223Z,2.88
2022-08-09T16:36:59.911Z,3.95
2022-08-09T16:41:03.592Z,3.28
2022-08-09T16:45:07.814Z,2.30
2022-08-09T16:49:18.809Z,1.48
2022-08-09T16:53:32.608Z,2.45
2022-08-09T16:58:08.154Z,3.75
2022-08-09T17:01:57.864Z,1.50
2022-08-09T17:06:07.819Z,4.10
2022-08-09T17:10:17.900Z,1.88
2022-08-09T17:14:27.432Z,4.75
2022-08-09T17:18:30.432Z,2.42
2022-08-09T17:22:32.867Z,2.03
2022-08-09T17:26:38.325Z,0.75
2022-08-09T17:30:40.575Z,2.08
2022-08-09T17:35:00.753Z,0.70
2022-08-09T17:39:04.209Z,2.63
2022-08-09T17:43:32.255Z,3.20
2022-08-09T17:47:31.723Z,1.42
2022-08-09T17:51:51.766Z,2.60
2022-08-09T17:55:59.699Z,3.22
2022-08-09T18:00:05.570Z,5.95
2022-08-09T18:04:13.729Z,0.93
2022-08-09T18:08:16.186Z,3.17
2022-08-09T18:12:19.953Z,1.65
2022-08-09T18:16:30.228Z,3.25
2022-08-09T18:20:54.251Z,3.33
2022-08-09T18:24:54.362Z,1.98
2022-08-09T18:30:40.546Z,1.70
2022-08-09T18:33:23.030Z,2.55
2022-08-09T18:37:48.542Z,1.05
2022-08-09T18:41:52.952Z,2.42
2022-08-09T18:46:47.764Z,1.23
2022-08-09T18:50:16.943Z,0.82
2022-08-09T18:54:28.747Z,1.10
2022-08-09T18:58:33.225Z,0.85
2022-08-09T19:02:35.221Z,2.03
2022-08-09T19:06:38.639Z,3.08
2022-08-09T19:10:40.876Z,0.95
2022-08-09T19:14:43.572Z,1.42
2022-08-09T19:18:45.766Z,0.98
2022-08-09T19:22:54.203Z,1.75
2022-08-09T19:26:57.039Z,2.30
2022-08-09T19:30:58.763Z,0.80
2022-08-09T19:35:01.603Z,1.50
2022-08-09T19:39:05.787Z,2.80
2022-08-09T19:43:10.060Z,0.65
2022-08-09T19:47:23.754Z,2.00
2022-08-09T19:51:30.878Z,4.20
2022-08-09T19:55:53.001Z,1.50
2022-08-09T20:00:06.850Z,1.58
2022-08-09T20:04:20.680Z,1.65
2022-08-09T20:08:35.414Z,0.60
2022-08-09T20:12:37.433Z,1.80
2022-08-09T20:16:49.861Z,1.13
2022-08-09T20:20:57.277Z,0.63
2022-08-09T20:24:59.090Z,2.67
2022-08-09T20:29:10.081Z,0.63
2022-08-09T20:33:12.982Z,0.93
2022-08-09T20:37:21.439Z,0.85
2022-08-09T20:41:34.722Z,1.60
2022-08-09T20:46:01.711Z,0.47
2022-08-09T20:50:01.045Z,0.60
2022-08-09T20:54:03.714Z,1.10
2022-08-09T20:58:20.170Z,2.15
2022-08-09T21:02:22.542Z,1.75
2022-08-09T21:06:25.142Z,2.72
2022-08-09T21:10:33.159Z,1.25
2022-08-09T21:14:40.682Z,1.15
2022-08-09T21:19:01.446Z,2.17
2022-08-09T21:23:09.310Z,2.15
2022-08-09T21:27:52.094Z,0.70
2022-08-09T21:31:48.798Z,2.30
2022-08-09T21:35:52.614Z,2.47
2022-08-09T21:39:54.574Z,1.05
2022-08-09T21:43:58.243Z,1.77
2022-08-09T21:47:59.984Z,3.70
2022-08-09T21:52:01.656Z,1.02
2022-08-09T21:56:03.701Z,1.02
2022-08-09T22:00:10.624Z,1.63
2022-08-09T22:04:14.323Z,0.90
2022-08-09T22:12:30.613Z,1.48
2022-08-09T22:16:37.171Z,1.00
2022-08-09T22:20:40.025Z,0.63
2022-08-09T22:24:53.542Z,3.83
2022-08-09T22:29:06.810Z,1.63
2022-08-09T22:33:09.878Z,0.85
2022-08-09T22:37:13.599Z,2.10
2022-08-09T22:41:15.516Z,1.35
2022-08-09T22:48:12.785Z,0.98
2022-08-09T22:49:40.393Z,1.88
2022-08-09T22:53:58.422Z,1.42
2022-08-09T22:58:04.957Z,0.52
2022-08-09T23:02:06.637Z,0.50
2022-08-09T23:06:08.442Z,2.20
2022-08-09T23:10:15.892Z,1.77
2022-08-09T23:14:17.763Z,2.45
2022-08-09T23:18:41.025Z,0.52
2022-08-09T23:22:42.686Z,1.02
2022-08-09T23:26:44.286Z,1.63
2022-08-09T23:30:51.402Z,3.22
2022-08-09T23:34:53.803Z,1.75
2022-08-09T23:38:55.707Z,3.88
2022-08-09T23:42:57.389Z,0.80
2022-08-09T23:46:59.090Z,2.17
2022-08-09T23:51:00.751Z,0.50
2022-08-09T23:55:02.358Z,0.77
2022-08-09T23:59:05.833Z,2.75
